sensor_id;sensor_type;location;lat;lon;timestamp;temperature;humidity
9800;DHT22;4939;52.00085300;4.17406100;2023-03-14T00:00:24;10.70;99.90
9800;DHT22;4939;52.00085300;4.17406100;2023-03-14T00:02:53;10.70;99.90
9800;DHT22;4939;52.00085300;4.17406100;2023-03-14T00:05:19;10.60;99.90
9800;DHT22;4939;52.00085300;4.17406100;2023-03-14T00:07:45;10.60;99.90
9800;DHT22;4939;52.00085300;4.17406100;2023-03-14T00:10:13;10.60;99.90
9800;DHT22;4939;52.00085300;4.17406100;2023-03-14T00:12:40;10.50;99.90
9800;DHT22;4939;52.00085300;4.17406100;2023-03-14T00:15:06;10.50;99.90
9800;DHT22;4939;52.00085300;4.17406100;2023-03-14T00:17:33;10.40;99.90
9800;DHT22;4939;52.00085300;4.17406100;2023-03-14T00:19:59;10.40;99.90
9800;DHT22;4939;52.00085300;4.17406100;2023-03-14T00:22:37;10.30;99.90
9800;DHT22;4939;52.00085300;4.17406100;2023-03-14T00:25:05;10.30;99.90
9800;DHT22;4939;52.00085300;4.17406100;2023-03-14T00:27:31;10.10;99.90
9800;DHT22;4939;52.00085300;4.17406100;2023-03-14T00:29:56;10.10;99.90
9800;DHT22;4939;52.00085300;4.17406100;2023-03-14T00:32:22;10.00;99.90
9800;DHT22;4939;52.00085300;4.17406100;2023-03-14T00:34:49;10.00;99.90
9800;DHT22;4939;52.00085300;4.17406100;2023-03-14T00:37:14;10.10;99.90
9800;DHT22;4939;52.00085300;4.17406100;2023-03-14T00:39:40;10.10;99.90
9800;DHT22;4939;52.00085300;4.17406100;2023-03-14T00:42:06;10.10;99.90
9800;DHT22;4939;52.00085300;4.17406100;2023-03-14T00:44:32;10.00;99.90
9800;DHT22;4939;52.00085300;4.17406100;2023-03-14T00:46:57;9.90;99.90
9800;DHT22;4939;52.00085300;4.17406100;2023-03-14T00:49:23;10.00;99.90
9800;DHT22;4939;52.00085300;4.17406100;2023-03-14T00:51:49;9.90;99.90
9800;DHT22;4939;52.00085300;4.17406100;2023-03-14T00:54:17;9.90;99.90
9800;DHT22;4939;52.00085300;4.17406100;2023-03-14T00:56:43;9.80;99.90
9800;DHT22;4939;52.00085300;4.17406100;2023-03-14T00:59:09;9.80;99.90
9800;DHT22;4939;52.00085300;4.17406100;2023-03-14T01:01:34;9.80;99.90
9800;DHT22;4939;52.00085300;4.17406100;2023-03-14T01:04:00;9.80;99.90
9800;DHT22;4939;52.00085300;4.17406100;2023-03-14T01:06:28;9.80;99.90
9800;DHT22;4939;52.00085300;4.17406100;2023-03-14T01:08:55;9.80;99.90
9800;DHT22;4939;52.00085300;4.17406100;2023-03-14T01:11:26;9.80;99.90
9800;DHT22;4939;52.00085300;4.17406100;2023-03-14T01:13:52;9.80;99.90
9800;DHT22;4939;52.00085300;4.17406100;2023-03-14T01:16:20;9.80;99.90
9800;DHT22;4939;52.00085300;4.17406100;2023-03-14T01:18:47;9.80;99.90
9800;DHT22;4939;52.00085300;4.17406100;2023-03-14T01:21:27;9.90;99.90
9800;DHT22;4939;52.00085300;4.17406100;2023-03-14T01:23:55;9.90;99.90
9800;DHT22;4939;52.00085300;4.17406100;2023-03-14T01:26:22;9.90;99.90
9800;DHT22;4939;52.00085300;4.17406100;2023-03-14T01:28:50;10.00;99.90
9800;DHT22;4939;52.00085300;4.17406100;2023-03-14T01:31:17;10.00;99.90
9800;DHT22;4939;52.00085300;4.17406100;2023-03-14T01:33:42;10.00;99.90
9800;DHT22;4939;52.00085300;4.17406100;2023-03-14T01:36:09;10.10;99.90
9800;DHT22;4939;52.00085300;4.17406100;2023-03-14T01:38:37;10.10;99.90
9800;DHT22;4939;52.00085300;4.17406100;2023-03-14T01:41:03;10.10;99.90
9800;DHT22;4939;52.00085300;4.17406100;2023-03-14T01:43:30;10.20;99.90
9800;DHT22;4939;52.00085300;4.17406100;2023-03-14T01:51:27;10.30;99.90
9800;DHT22;4939;52.00085300;4.17406100;2023-03-14T01:54:03;10.40;99.90
9800;DHT22;4939;52.00085300;4.17406100;2023-03-14T01:56:31;10.30;99.90
9800;DHT22;4939;52.00085300;4.17406100;2023-03-14T01:58:58;10.30;99.90
9800;DHT22;4939;52.00085300;4.17406100;2023-03-14T02:01:25;10.40;99.90
9800;DHT22;4939;52.00085300;4.17406100;2023-03-14T02:03:57;10.40;99.90
9800;DHT22;4939;52.00085300;4.17406100;2023-03-14T02:06:29;10.40;99.90
9800;DHT22;4939;52.00085300;4.17406100;2023-03-14T02:09:00;10.40;99.90
9800;DHT22;4939;52.00085300;4.17406100;2023-03-14T02:11:28;10.40;99.90
9800;DHT22;4939;52.00085300;4.17406100;2023-03-14T02:13:55;10.50;99.90
9800;DHT22;4939;52.00085300;4.17406100;2023-03-14T02:16:22;10.50;99.90
9800;DHT22;4939;52.00085300;4.17406100;2023-03-14T02:18:47;10.40;99.90
9800;DHT22;4939;52.00085300;4.17406100;2023-03-14T02:22:01;10.50;99.90
9800;DHT22;4939;52.00085300;4.17406100;2023-03-14T02:27:33;10.40;99.90
9800;DHT22;4939;52.00085300;4.17406100;2023-03-14T02:30:06;10.40;99.90
9800;DHT22;4939;52.00085300;4.17406100;2023-03-14T02:32:34;10.40;99.90
9800;DHT22;4939;52.00085300;4.17406100;2023-03-14T02:35:05;10.40;99.90
9800;DHT22;4939;52.00085300;4.17406100;2023-03-14T02:37:37;10.30;99.90
9800;DHT22;4939;52.00085300;4.17406100;2023-03-14T02:40:04;10.30;99.90
9800;DHT22;4939;52.00085300;4.17406100;2023-03-14T02:42:30;10.30;99.90
9800;DHT22;4939;52.00085300;4.17406100;2023-03-14T02:47:34;10.30;99.90
9800;DHT22;4939;52.00085300;4.17406100;2023-03-14T02:50:07;10.30;99.90
9800;DHT22;4939;52.00085300;4.17406100;2023-03-14T02:52:33;10.30;99.90
9800;DHT22;4939;52.00085300;4.17406100;2023-03-14T02:54:59;10.30;99.90
9800;DHT22;4939;52.00085300;4.17406100;2023-03-14T02:57:25;10.30;99.90
9800;DHT22;4939;52.00085300;4.17406100;2023-03-14T02:59:51;10.30;99.90
9800;DHT22;4939;52.00085300;4.17406100;2023-03-14T03:02:16;10.30;99.90
9800;DHT22;4939;52.00085300;4.17406100;2023-03-14T03:04:48;10.40;99.90
9800;DHT22;4939;52.00085300;4.17406100;2023-03-14T03:07:27;10.40;99.90
9800;DHT22;4939;52.00085300;4.17406100;2023-03-14T03:09:59;10.40;99.90
9800;DHT22;4939;52.00085300;4.17406100;2023-03-14T03:12:25;10.40;99.90
9800;DHT22;4939;52.00085300;4.17406100;2023-03-14T03:14:51;10.40;99.90
9800;DHT22;4939;52.00085300;4.17406100;2023-03-14T03:17:17;10.40;99.90
9800;DHT22;4939;52.00085300;4.17406100;2023-03-14T03:19:43;10.40;99.90
9800;DHT22;4939;52.00085300;4.17406100;2023-03-14T03:22:08;10.40;99.90
9800;DHT22;4939;52.00085300;4.17406100;2023-03-14T03:24:34;10.50;99.90
9800;DHT22;4939;52.00085300;4.17406100;2023-03-14T03:27:00;10.50;99.90
9800;DHT22;4939;52.00085300;4.17406100;2023-03-14T03:29:26;10.50;99.90
9800;DHT22;4939;52.00085300;4.17406100;2023-03-14T03:31:51;10.50;99.90
9800;DHT22;4939;52.00085300;4.17406100;2023-03-14T03:34:17;10.40;99.90
9800;DHT22;4939;52.00085300;4.17406100;2023-03-14T03:36:43;10.40;99.90
9800;DHT22;4939;52.00085300;4.17406100;2023-03-14T03:39:08;10.40;99.90
9800;DHT22;4939;52.00085300;4.17406100;2023-03-14T03:41:34;10.30;99.90
9800;DHT22;4939;52.00085300;4.17406100;2023-03-14T03:44:00;10.30;99.90
9800;DHT22;4939;52.00085300;4.17406100;2023-03-14T03:46:26;10.20;99.90
9800;DHT22;4939;52.00085300;4.17406100;2023-03-14T03:48:56;10.10;99.90
9800;DHT22;4939;52.00085300;4.17406100;2023-03-14T03:51:21;10.00;99.90
9800;DHT22;4939;52.00085300;4.17406100;2023-03-14T03:53:47;10.00;99.90
9800;DHT22;4939;52.00085300;4.17406100;2023-03-14T03:56:13;10.00;99.90
9800;DHT22;4939;52.00085300;4.17406100;2023-03-14T03:58:38;9.90;99.90
9800;DHT22;4939;52.00085300;4.17406100;2023-03-14T04:01:06;9.80;99.90
9800;DHT22;4939;52.00085300;4.17406100;2023-03-14T04:03:32;9.80;99.90
9800;DHT22;4939;52.00085300;4.17406100;2023-03-14T04:06:07;9.80;99.90
9800;DHT22;4939;52.00085300;4.17406100;2023-03-14T04:08:33;9.70;99.90
9800;DHT22;4939;52.00085300;4.17406100;2023-03-14T04:11:00;9.70;99.90
9800;DHT22;4939;52.00085300;4.17406100;2023-03-14T04:13:27;9.70;99.90
9800;DHT22;4939;52.00085300;4.17406100;2023-03-14T04:15:53;9.60;99.90
9800;DHT22;4939;52.00085300;4.17406100;2023-03-14T04:18:20;9.60;99.90
9800;DHT22;4939;52.00085300;4.17406100;2023-03-14T04:20:45;9.60;99.90
9800;DHT22;4939;52.00085300;4.17406100;2023-03-14T04:23:15;9.60;99.90
9800;DHT22;4939;52.00085300;4.17406100;2023-03-14T04:25:41;9.60;99.90
9800;DHT22;4939;52.00085300;4.17406100;2023-03-14T04:28:06;9.60;99.90
9800;DHT22;4939;52.00085300;4.17406100;2023-03-14T04:30:32;9.50;99.90
9800;DHT22;4939;52.00085300;4.17406100;2023-03-14T04:32:58;9.50;99.90
9800;DHT22;4939;52.00085300;4.17406100;2023-03-14T04:35:24;9.70;99.90
9800;DHT22;4939;52.00085300;4.17406100;2023-03-14T04:37:50;9.50;99.90
9800;DHT22;4939;52.00085300;4.17406100;2023-03-14T04:40:17;9.40;99.90
9800;DHT22;4939;52.00085300;4.17406100;2023-03-14T04:42:43;9.40;99.90
9800;DHT22;4939;52.00085300;4.17406100;2023-03-14T04:45:09;9.40;99.90
9800;DHT22;4939;52.00085300;4.17406100;2023-03-14T04:47:35;9.40;99.90
9800;DHT22;4939;52.00085300;4.17406100;2023-03-14T04:50:01;9.30;99.90
9800;DHT22;4939;52.00085300;4.17406100;2023-03-14T04:52:27;9.30;99.90
9800;DHT22;4939;52.00085300;4.17406100;2023-03-14T04:54:52;9.30;99.90
9800;DHT22;4939;52.00085300;4.17406100;2023-03-14T04:57:18;9.30;99.90
9800;DHT22;4939;52.00085300;4.17406100;2023-03-14T04:59:44;9.20;99.90
9800;DHT22;4939;52.00085300;4.17406100;2023-03-14T05:02:09;9.30;99.90
9800;DHT22;4939;52.00085300;4.17406100;2023-03-14T05:04:35;9.20;99.90
9800;DHT22;4939;52.00085300;4.17406100;2023-03-14T05:07:01;9.30;99.90
9800;DHT22;4939;52.00085300;4.17406100;2023-03-14T05:09:27;8.70;99.90
9800;DHT22;4939;52.00085300;4.17406100;2023-03-14T05:11:53;8.50;99.90
9800;DHT22;4939;52.00085300;4.17406100;2023-03-14T05:14:18;8.20;99.90
9800;DHT22;4939;52.00085300;4.17406100;2023-03-14T05:16:44;8.00;99.90
9800;DHT22;4939;52.00085300;4.17406100;2023-03-14T05:19:11;8.00;99.90
9800;DHT22;4939;52.00085300;4.17406100;2023-03-14T05:21:37;7.80;99.90
9800;DHT22;4939;52.00085300;4.17406100;2023-03-14T05:24:03;7.70;99.90
9800;DHT22;4939;52.00085300;4.17406100;2023-03-14T05:26:29;7.70;99.90
9800;DHT22;4939;52.00085300;4.17406100;2023-03-14T05:28:54;7.70;99.90
9800;DHT22;4939;52.00085300;4.17406100;2023-03-14T05:31:20;7.70;99.90
9800;DHT22;4939;52.00085300;4.17406100;2023-03-14T05:33:46;7.60;99.90
9800;DHT22;4939;52.00085300;4.17406100;2023-03-14T05:36:12;7.60;99.90
9800;DHT22;4939;52.00085300;4.17406100;2023-03-14T05:38:37;7.60;99.90
9800;DHT22;4939;52.00085300;4.17406100;2023-03-14T05:41:03;7.50;99.90
9800;DHT22;4939;52.00085300;4.17406100;2023-03-14T05:43:29;7.50;99.90
9800;DHT22;4939;52.00085300;4.17406100;2023-03-14T05:45:55;7.50;99.90
9800;DHT22;4939;52.00085300;4.17406100;2023-03-14T05:48:20;7.50;99.90
9800;DHT22;4939;52.00085300;4.17406100;2023-03-14T05:50:47;7.50;99.90
9800;DHT22;4939;52.00085300;4.17406100;2023-03-14T05:53:13;7.40;99.90
9800;DHT22;4939;52.00085300;4.17406100;2023-03-14T05:55:40;7.30;99.90
9800;DHT22;4939;52.00085300;4.17406100;2023-03-14T05:58:06;7.30;99.90
9800;DHT22;4939;52.00085300;4.17406100;2023-03-14T06:00:31;7.20;99.90
9800;DHT22;4939;52.00085300;4.17406100;2023-03-14T06:02:57;7.30;99.90
9800;DHT22;4939;52.00085300;4.17406100;2023-03-14T06:05:23;7.20;99.90
9800;DHT22;4939;52.00085300;4.17406100;2023-03-14T06:07:49;7.20;99.90
9800;DHT22;4939;52.00085300;4.17406100;2023-03-14T06:10:14;7.10;99.90
9800;DHT22;4939;52.00085300;4.17406100;2023-03-14T06:12:40;7.10;99.90
9800;DHT22;4939;52.00085300;4.17406100;2023-03-14T06:15:07;7.10;99.90
9800;DHT22;4939;52.00085300;4.17406100;2023-03-14T06:17:33;7.00;99.90
9800;DHT22;4939;52.00085300;4.17406100;2023-03-14T06:19:58;7.00;99.90
9800;DHT22;4939;52.00085300;4.17406100;2023-03-14T06:22:24;7.00;99.90
9800;DHT22;4939;52.00085300;4.17406100;2023-03-14T06:24:50;7.10;99.90
9800;DHT22;4939;52.00085300;4.17406100;2023-03-14T06:27:16;7.00;99.90
9800;DHT22;4939;52.00085300;4.17406100;2023-03-14T06:29:41;7.10;99.90
9800;DHT22;4939;52.00085300;4.17406100;2023-03-14T06:32:07;7.10;99.90
9800;DHT22;4939;52.00085300;4.17406100;2023-03-14T06:34:33;7.10;99.90
9800;DHT22;4939;52.00085300;4.17406100;2023-03-14T06:36:58;7.10;99.90
9800;DHT22;4939;52.00085300;4.17406100;2023-03-14T06:39:24;7.20;99.90
9800;DHT22;4939;52.00085300;4.17406100;2023-03-14T06:41:50;7.20;99.90
9800;DHT22;4939;52.00085300;4.17406100;2023-03-14T06:44:16;7.20;99.90
9800;DHT22;4939;52.00085300;4.17406100;2023-03-14T06:46:41;7.20;99.90
9800;DHT22;4939;52.00085300;4.17406100;2023-03-14T06:49:07;7.20;99.90
9800;DHT22;4939;52.00085300;4.17406100;2023-03-14T06:51:33;7.10;99.90
9800;DHT22;4939;52.00085300;4.17406100;2023-03-14T06:53:59;7.10;99.90
9800;DHT22;4939;52.00085300;4.17406100;2023-03-14T06:56:25;7.10;99.90
9800;DHT22;4939;52.00085300;4.17406100;2023-03-14T06:58:50;7.00;99.90
9800;DHT22;4939;52.00085300;4.17406100;2023-03-14T07:01:23;7.00;99.90
9800;DHT22;4939;52.00085300;4.17406100;2023-03-14T07:03:49;6.90;99.90
9800;DHT22;4939;52.00085300;4.17406100;2023-03-14T07:06:15;6.90;99.90
9800;DHT22;4939;52.00085300;4.17406100;2023-03-14T07:08:41;6.80;99.90
9800;DHT22;4939;52.00085300;4.17406100;2023-03-14T07:11:08;6.80;99.90
9800;DHT22;4939;52.00085300;4.17406100;2023-03-14T07:13:35;6.90;99.90
9800;DHT22;4939;52.00085300;4.17406100;2023-03-14T07:16:01;6.90;99.90
9800;DHT22;4939;52.00085300;4.17406100;2023-03-14T07:18:27;6.90;99.90
9800;DHT22;4939;52.00085300;4.17406100;2023-03-14T07:20:52;7.00;99.90
9800;DHT22;4939;52.00085300;4.17406100;2023-03-14T07:23:18;7.00;99.90
9800;DHT22;4939;52.00085300;4.17406100;2023-03-14T07:25:43;7.00;99.90
9800;DHT22;4939;52.00085300;4.17406100;2023-03-14T07:28:09;6.90;99.90
9800;DHT22;4939;52.00085300;4.17406100;2023-03-14T07:30:35;7.00;99.90
9800;DHT22;4939;52.00085300;4.17406100;2023-03-14T07:33:01;5.90;99.90
9800;DHT22;4939;52.00085300;4.17406100;2023-03-14T07:35:27;6.70;99.90
9800;DHT22;4939;52.00085300;4.17406100;2023-03-14T07:37:52;9.90;99.90
9800;DHT22;4939;52.00085300;4.17406100;2023-03-14T07:40:18;6.60;99.90
9800;DHT22;4939;52.00085300;4.17406100;2023-03-14T07:42:44;6.50;99.90
9800;DHT22;4939;52.00085300;4.17406100;2023-03-14T07:45:10;6.30;99.90
9800;DHT22;4939;52.00085300;4.17406100;2023-03-14T07:47:36;6.20;99.90
9800;DHT22;4939;52.00085300;4.17406100;2023-03-14T07:50:03;6.20;99.90
9800;DHT22;4939;52.00085300;4.17406100;2023-03-14T07:52:29;6.20;99.90
9800;DHT22;4939;52.00085300;4.17406100;2023-03-14T07:54:54;6.10;99.90
9800;DHT22;4939;52.00085300;4.17406100;2023-03-14T07:57:20;6.10;99.90
9800;DHT22;4939;52.00085300;4.17406100;2023-03-14T07:59:46;6.10;99.90
9800;DHT22;4939;52.00085300;4.17406100;2023-03-14T08:02:12;6.20;99.90
9800;DHT22;4939;52.00085300;4.17406100;2023-03-14T08:04:39;6.20;99.90
9800;DHT22;4939;52.00085300;4.17406100;2023-03-14T08:07:05;6.20;99.90
9800;DHT22;4939;52.00085300;4.17406100;2023-03-14T08:09:31;6.10;99.90
9800;DHT22;4939;52.00085300;4.17406100;2023-03-14T08:11:57;6.00;99.90
9800;DHT22;4939;52.00085300;4.17406100;2023-03-14T08:14:23;5.90;99.90
9800;DHT22;4939;52.00085300;4.17406100;2023-03-14T08:16:52;5.80;99.90
9800;DHT22;4939;52.00085300;4.17406100;2023-03-14T08:19:17;5.80;99.90
9800;DHT22;4939;52.00085300;4.17406100;2023-03-14T08:21:43;5.80;99.90
9800;DHT22;4939;52.00085300;4.17406100;2023-03-14T08:24:09;5.90;99.90
9800;DHT22;4939;52.00085300;4.17406100;2023-03-14T08:26:35;6.00;99.90
9800;DHT22;4939;52.00085300;4.17406100;2023-03-14T08:29:00;6.00;99.90
9800;DHT22;4939;52.00085300;4.17406100;2023-03-14T08:31:26;6.10;99.90
9800;DHT22;4939;52.00085300;4.17406100;2023-03-14T08:33:52;6.20;99.90
9800;DHT22;4939;52.00085300;4.17406100;2023-03-14T08:36:19;6.20;99.90
9800;DHT22;4939;52.00085300;4.17406100;2023-03-14T08:38:45;6.20;99.90
9800;DHT22;4939;52.00085300;4.17406100;2023-03-14T08:41:11;6.30;99.90
9800;DHT22;4939;52.00085300;4.17406100;2023-03-14T08:43:37;6.30;99.90
9800;DHT22;4939;52.00085300;4.17406100;2023-03-14T08:46:03;6.50;99.90
9800;DHT22;4939;52.00085300;4.17406100;2023-03-14T08:48:29;6.50;99.90
9800;DHT22;4939;52.00085300;4.17406100;2023-03-14T08:51:14;6.70;99.90
9800;DHT22;4939;52.00085300;4.17406100;2023-03-14T08:53:40;6.80;99.90
9800;DHT22;4939;52.00085300;4.17406100;2023-03-14T08:56:06;6.90;99.90
9800;DHT22;4939;52.00085300;4.17406100;2023-03-14T08:58:35;7.00;99.90
9800;DHT22;4939;52.00085300;4.17406100;2023-03-14T09:01:07;7.10;99.90
9800;DHT22;4939;52.00085300;4.17406100;2023-03-14T09:03:33;7.10;99.90
9800;DHT22;4939;52.00085300;4.17406100;2023-03-14T09:06:06;7.20;99.90
9800;DHT22;4939;52.00085300;4.17406100;2023-03-14T09:08:32;7.20;99.90
9800;DHT22;4939;52.00085300;4.17406100;2023-03-14T09:10:58;7.40;99.90
9800;DHT22;4939;52.00085300;4.17406100;2023-03-14T09:13:24;7.40;99.90
9800;DHT22;4939;52.00085300;4.17406100;2023-03-14T09:15:51;7.30;99.90
9800;DHT22;4939;52.00085300;4.17406100;2023-03-14T09:18:17;7.40;99.90
9800;DHT22;4939;52.00085300;4.17406100;2023-03-14T09:20:42;7.50;99.90
9800;DHT22;4939;52.00085300;4.17406100;2023-03-14T09:23:08;7.40;99.90
9800;DHT22;4939;52.00085300;4.17406100;2023-03-14T09:25:33;7.30;99.90
9800;DHT22;4939;52.00085300;4.17406100;2023-03-14T09:27:59;7.20;99.90
9800;DHT22;4939;52.00085300;4.17406100;2023-03-14T09:30:25;6.70;99.90
9800;DHT22;4939;52.00085300;4.17406100;2023-03-14T09:32:50;6.50;99.90
9800;DHT22;4939;52.00085300;4.17406100;2023-03-14T09:35:16;6.40;99.90
9800;DHT22;4939;52.00085300;4.17406100;2023-03-14T09:37:41;6.40;99.90
9800;DHT22;4939;52.00085300;4.17406100;2023-03-14T09:40:15;6.40;99.90
9800;DHT22;4939;52.00085300;4.17406100;2023-03-14T09:42:41;6.40;99.90
9800;DHT22;4939;52.00085300;4.17406100;2023-03-14T09:47:57;6.60;99.90
9800;DHT22;4939;52.00085300;4.17406100;2023-03-14T09:50:25;6.70;99.90
9800;DHT22;4939;52.00085300;4.17406100;2023-03-14T09:53:03;6.70;99.90
9800;DHT22;4939;52.00085300;4.17406100;2023-03-14T09:55:29;6.70;99.90
9800;DHT22;4939;52.00085300;4.17406100;2023-03-14T09:57:59;6.60;99.90
9800;DHT22;4939;52.00085300;4.17406100;2023-03-14T10:00:28;6.50;99.90
9800;DHT22;4939;52.00085300;4.17406100;2023-03-14T10:05:40;6.70;99.90
9800;DHT22;4939;52.00085300;4.17406100;2023-03-14T10:08:06;6.70;99.90
9800;DHT22;4939;52.00085300;4.17406100;2023-03-14T10:10:32;6.80;99.90
9800;DHT22;4939;52.00085300;4.17406100;2023-03-14T10:13:01;7.00;99.90
9800;DHT22;4939;52.00085300;4.17406100;2023-03-14T10:15:34;7.50;99.90
9800;DHT22;4939;52.00085300;4.17406100;2023-03-14T10:18:02;7.80;99.90
9800;DHT22;4939;52.00085300;4.17406100;2023-03-14T10:20:35;7.70;99.90
9800;DHT22;4939;52.00085300;4.17406100;2023-03-14T10:23:02;7.60;99.90
9800;DHT22;4939;52.00085300;4.17406100;2023-03-14T10:25:31;7.40;99.90
9800;DHT22;4939;52.00085300;4.17406100;2023-03-14T10:27:57;7.40;99.90
9800;DHT22;4939;52.00085300;4.17406100;2023-03-14T10:30:43;7.40;99.90
9800;DHT22;4939;52.00085300;4.17406100;2023-03-14T10:35:56;7.30;99.90
9800;DHT22;4939;52.00085300;4.17406100;2023-03-14T10:38:24;7.20;99.90
9800;DHT22;4939;52.00085300;4.17406100;2023-03-14T10:40:52;7.20;99.90
9800;DHT22;4939;52.00085300;4.17406100;2023-03-14T10:43:32;7.20;99.90
9800;DHT22;4939;52.00085300;4.17406100;2023-03-14T10:46:16;7.20;99.90
9800;DHT22;4939;52.00085300;4.17406100;2023-03-14T10:48:42;7.20;99.90
9800;DHT22;4939;52.00085300;4.17406100;2023-03-14T10:53:58;7.40;99.90
9800;DHT22;4939;52.00085300;4.17406100;2023-03-14T10:56:26;7.60;99.90
9800;DHT22;4939;52.00085300;4.17406100;2023-03-14T10:58:58;8.30;99.90
9800;DHT22;4939;52.00085300;4.17406100;2023-03-14T11:01:41;7.70;99.90
9800;DHT22;4939;52.00085300;4.17406100;2023-03-14T11:09:50;8.60;99.90
9800;DHT22;4939;52.00085300;4.17406100;2023-03-14T11:13:08;8.70;99.90
9800;DHT22;4939;52.00085300;4.17406100;2023-03-14T11:16:03;8.80;99.90
9800;DHT22;4939;52.00085300;4.17406100;2023-03-14T11:29:40;9.00;99.90
9800;DHT22;4939;52.00085300;4.17406100;2023-03-14T11:32:24;8.80;99.90
9800;DHT22;4939;52.00085300;4.17406100;2023-03-14T11:34:55;8.60;99.90
9800;DHT22;4939;52.00085300;4.17406100;2023-03-14T11:37:29;8.60;99.90
9800;DHT22;4939;52.00085300;4.17406100;2023-03-14T11:42:50;8.40;99.90
9800;DHT22;4939;52.00085300;4.17406100;2023-03-14T11:45:25;8.30;99.90
9800;DHT22;4939;52.00085300;4.17406100;2023-03-14T11:48:04;8.30;99.90
9800;DHT22;4939;52.00085300;4.17406100;2023-03-14T11:50:30;8.30;99.90
9800;DHT22;4939;52.00085300;4.17406100;2023-03-14T11:53:03;8.30;99.90
9800;DHT22;4939;52.00085300;4.17406100;2023-03-14T11:55:35;8.10;99.90
9800;DHT22;4939;52.00085300;4.17406100;2023-03-14T11:58:11;8.30;99.90
9800;DHT22;4939;52.00085300;4.17406100;2023-03-14T12:00:38;8.50;99.90
9800;DHT22;4939;52.00085300;4.17406100;2023-03-14T12:08:49;8.50;55.90
9800;DHT22;4939;52.00085300;4.17406100;2023-03-14T12:11:31;8.50;15.50
9800;DHT22;4939;52.00085300;4.17406100;2023-03-14T12:13:57;8.40;1.00
9800;DHT22;4939;52.00085300;4.17406100;2023-03-14T12:18:52;8.50;1.00
9800;DHT22;4939;52.00085300;4.17406100;2023-03-14T12:21:19;8.50;1.00
9800;DHT22;4939;52.00085300;4.17406100;2023-03-14T12:23:49;8.40;1.00
9800;DHT22;4939;52.00085300;4.17406100;2023-03-14T12:26:21;8.30;99.90
9800;DHT22;4939;52.00085300;4.17406100;2023-03-14T12:39:25;8.10;99.90
9800;DHT22;4939;52.00085300;4.17406100;2023-03-14T12:42:10;8.10;99.90
9800;DHT22;4939;52.00085300;4.17406100;2023-03-14T12:44:42;8.20;99.90
9800;DHT22;4939;52.00085300;4.17406100;2023-03-14T12:47:40;8.20;99.90
9800;DHT22;4939;52.00085300;4.17406100;2023-03-14T12:50:07;8.20;99.90
9800;DHT22;4939;52.00085300;4.17406100;2023-03-14T12:55:36;8.20;99.90
9800;DHT22;4939;52.00085300;4.17406100;2023-03-14T12:58:17;7.90;99.90
9800;DHT22;4939;52.00085300;4.17406100;2023-03-14T13:00:44;8.00;99.90
9800;DHT22;4939;52.00085300;4.17406100;2023-03-14T13:03:20;8.00;99.90
9800;DHT22;4939;52.00085300;4.17406100;2023-03-14T13:06:01;7.90;99.90
9800;DHT22;4939;52.00085300;4.17406100;2023-03-14T13:08:46;7.80;99.90
9800;DHT22;4939;52.00085300;4.17406100;2023-03-14T13:11:18;7.80;99.90
9800;DHT22;4939;52.00085300;4.17406100;2023-03-14T13:13:52;7.90;99.90
9800;DHT22;4939;52.00085300;4.17406100;2023-03-14T13:16:20;7.90;99.90
9800;DHT22;4939;52.00085300;4.17406100;2023-03-14T13:18:48;8.00;99.90
9800;DHT22;4939;52.00085300;4.17406100;2023-03-14T13:21:19;8.00;99.90
9800;DHT22;4939;52.00085300;4.17406100;2023-03-14T13:26:37;7.70;99.90
9800;DHT22;4939;52.00085300;4.17406100;2023-03-14T13:29:25;7.70;99.90
9800;DHT22;4939;52.00085300;4.17406100;2023-03-14T13:31:53;7.70;99.90
9800;DHT22;4939;52.00085300;4.17406100;2023-03-14T13:34:20;7.70;99.90
9800;DHT22;4939;52.00085300;4.17406100;2023-03-14T13:36:46;7.60;99.90
9800;DHT22;4939;52.00085300;4.17406100;2023-03-14T13:39:18;7.60;99.90
9800;DHT22;4939;52.00085300;4.17406100;2023-03-14T13:41:45;7.70;99.90
9800;DHT22;4939;52.00085300;4.17406100;2023-03-14T13:44:38;7.80;99.90
9800;DHT22;4939;52.00085300;4.17406100;2023-03-14T13:47:06;7.70;99.90
9800;DHT22;4939;52.00085300;4.17406100;2023-03-14T13:49:36;7.80;99.90
9800;DHT22;4939;52.00085300;4.17406100;2023-03-14T13:52:03;7.60;99.90
9800;DHT22;4939;52.00085300;4.17406100;2023-03-14T13:54:31;7.60;99.90
9800;DHT22;4939;52.00085300;4.17406100;2023-03-14T13:57:01;7.60;99.90
9800;DHT22;4939;52.00085300;4.17406100;2023-03-14T13:59:29;7.60;99.90
9800;DHT22;4939;52.00085300;4.17406100;2023-03-14T14:01:57;7.60;99.90
9800;DHT22;4939;52.00085300;4.17406100;2023-03-14T14:04:24;7.60;99.90
9800;DHT22;4939;52.00085300;4.17406100;2023-03-14T14:07:07;7.60;99.90
9800;DHT22;4939;52.00085300;4.17406100;2023-03-14T14:09:41;7.60;99.90
9800;DHT22;4939;52.00085300;4.17406100;2023-03-14T14:12:29;7.60;99.90
9800;DHT22;4939;52.00085300;4.17406100;2023-03-14T14:15:16;7.70;99.90
9800;DHT22;4939;52.00085300;4.17406100;2023-03-14T14:17:51;7.70;99.90
9800;DHT22;4939;52.00085300;4.17406100;2023-03-14T14:22:58;7.70;99.90
9800;DHT22;4939;52.00085300;4.17406100;2023-03-14T14:25:24;7.70;99.90
9800;DHT22;4939;52.00085300;4.17406100;2023-03-14T14:27:50;7.60;99.90
9800;DHT22;4939;52.00085300;4.17406100;2023-03-14T14:32:50;7.90;99.90
9800;DHT22;4939;52.00085300;4.17406100;2023-03-14T14:35:32;8.00;99.90
9800;DHT22;4939;52.00085300;4.17406100;2023-03-14T14:37:58;8.00;99.90
9800;DHT22;4939;52.00085300;4.17406100;2023-03-14T14:40:26;8.20;99.90
9800;DHT22;4939;52.00085300;4.17406100;2023-03-14T14:42:52;8.20;99.90
9800;DHT22;4939;52.00085300;4.17406100;2023-03-14T14:45:20;8.20;99.90
9800;DHT22;4939;52.00085300;4.17406100;2023-03-14T14:47:51;8.10;99.90
9800;DHT22;4939;52.00085300;4.17406100;2023-03-14T14:50:48;8.00;99.90
9800;DHT22;4939;52.00085300;4.17406100;2023-03-14T14:53:30;8.00;99.90
9800;DHT22;4939;52.00085300;4.17406100;2023-03-14T14:56:13;8.00;99.90
9800;DHT22;4939;52.00085300;4.17406100;2023-03-14T14:58:44;8.00;99.90
9800;DHT22;4939;52.00085300;4.17406100;2023-03-14T15:01:14;7.90;99.90
9800;DHT22;4939;52.00085300;4.17406100;2023-03-14T15:03:43;8.00;99.90
9800;DHT22;4939;52.00085300;4.17406100;2023-03-14T15:06:11;8.10;99.90
9800;DHT22;4939;52.00085300;4.17406100;2023-03-14T15:08:37;8.10;99.90
9800;DHT22;4939;52.00085300;4.17406100;2023-03-14T15:11:03;8.00;99.90
9800;DHT22;4939;52.00085300;4.17406100;2023-03-14T15:13:29;8.00;99.90